createdAt,value
2019-02-24T00:00:30.340Z,11.60
2019-02-24T00:02:59.348Z,12.20
2019-02-24T00:05:28.284Z,11.90
2019-02-24T00:07:57.176Z,11.40
2019-02-24T00:10:26.056Z,11.20
2019-02-24T00:12:55.136Z,11.00
2019-02-24T00:15:24.127Z,10.80
2019-02-24T00:17:53.120Z,10.50
2019-02-24T00:20:22.024Z,10.60
2019-02-24T00:22:51.044Z,10.50
2019-02-24T00:25:19.856Z,10.40
2019-02-24T00:27:49.012Z,10.40
2019-02-24T00:30:17.990Z,10.50
2019-02-24T00:32:46.908Z,10.10
2019-02-24T00:35:15.741Z,10.00
2019-02-24T00:37:44.980Z,10.20
2019-02-24T00:40:13.875Z,9.80
2019-02-24T00:42:42.781Z,10.00
2019-02-24T00:45:11.714Z,9.80
2019-02-24T00:47:40.529Z,10.20
2019-02-24T00:50:09.536Z,10.30
2019-02-24T00:52:38.396Z,10.80
2019-02-24T00:55:07.360Z,11.10
2019-02-24T00:57:36.348Z,11.00
2019-02-24T01:00:05.981Z,11.40
2019-02-24T01:02:34.952Z,11.30
2019-02-24T01:05:04.396Z,12.10
2019-02-24T01:07:33.316Z,12.00
2019-02-24T01:10:02.295Z,11.70
2019-02-24T01:12:31.696Z,12.00
2019-02-24T01:15:00.508Z,12.30
2019-02-24T01:17:29.416Z,12.20
2019-02-24T01:19:58.235Z,12.20
2019-02-24T01:22:27.051Z,11.80
2019-02-24T01:24:55.976Z,11.30
2019-02-24T01:27:24.818Z,11.00
2019-02-24T01:29:53.702Z,10.80
2019-02-24T01:32:22.672Z,10.80
2019-02-24T01:34:51.506Z,10.70
2019-02-24T01:37:20.361Z,10.40
2019-02-24T01:39:49.197Z,10.30
2019-02-24T01:42:18.235Z,10.20
2019-02-24T01:44:47.152Z,10.00
2019-02-24T01:47:15.970Z,9.80
2019-02-24T01:49:44.876Z,9.40
2019-02-24T01:52:13.840Z,9.50
2019-02-24T01:54:42.693Z,9.30
2019-02-24T01:57:11.572Z,9.20
2019-02-24T01:59:40.489Z,9.40
2019-02-24T02:02:09.396Z,9.60
2019-02-24T02:04:38.328Z,9.70
2019-02-24T02:07:07.224Z,9.90
2019-02-24T02:09:36.008Z,10.10
2019-02-24T02:12:05.037Z,10.00
2019-02-24T02:14:33.936Z,10.10
2019-02-24T02:17:02.867Z,10.00
2019-02-24T02:19:31.792Z,10.00
2019-02-24T02:22:00.714Z,10.00
2019-02-24T02:24:29.612Z,10.00
2019-02-24T02:26:58.408Z,9.90
2019-02-24T02:29:27.283Z,10.00
2019-02-24T02:31:56.588Z,10.20
2019-02-24T02:34:25.473Z,10.20
2019-02-24T02:36:54.370Z,10.30
2019-02-24T02:39:23.148Z,10.30
2019-02-24T02:41:52.061Z,10.30
2019-02-24T02:44:20.984Z,10.30
2019-02-24T02:46:50.074Z,10.30
2019-02-24T02:49:19.003Z,10.30
2019-02-24T02:51:47.803Z,10.30
2019-02-24T02:54:17.101Z,10.30
2019-02-24T02:56:46.015Z,10.20
2019-02-24T02:59:14.922Z,10.20
2019-02-24T03:01:43.856Z,10.10
2019-02-24T03:04:12.738Z,10.10
2019-02-24T03:06:46.757Z,10.10
2019-02-24T03:09:15.618Z,10.20
2019-02-24T03:11:44.588Z,10.20
2019-02-24T03:14:13.426Z,10.00
2019-02-24T03:16:42.420Z,10.00
2019-02-24T03:19:11.372Z,9.90
2019-02-24T03:21:40.194Z,9.80
2019-02-24T03:24:09.080Z,9.80
2019-02-24T03:26:37.997Z,9.90
2019-02-24T03:29:06.966Z,9.80
2019-02-24T03:31:35.789Z,9.70
2019-02-24T03:34:04.778Z,9.80
2019-02-24T03:36:33.602Z,10.00
2019-02-24T03:39:02.458Z,9.90
2019-02-24T03:41:31.770Z,9.60
2019-02-24T03:44:00.648Z,9.50
2019-02-24T03:46:29.613Z,9.40
2019-02-24T03:48:58.599Z,9.60
2019-02-24T03:51:27.484Z,9.50
2019-02-24T03:53:56.472Z,9.80
2019-02-24T03:56:25.762Z,9.50
2019-02-24T03:58:55.276Z,9.80
2019-02-24T04:01:24.144Z,9.20
2019-02-24T04:03:53.251Z,9.10
2019-02-24T04:06:22.084Z,9.30
2019-02-24T04:08:51.048Z,9.20
2019-02-24T04:11:19.877Z,9.30
2019-02-24T04:13:48.848Z,9.40
2019-02-24T04:16:17.722Z,9.30
2019-02-24T04:18:46.548Z,9.10
2019-02-24T04:21:15.488Z,9.30
2019-02-24T04:23:44.296Z,9.50
2019-02-24T04:26:13.471Z,9.50
2019-02-24T04:28:42.455Z,9.10
2019-02-24T04:31:11.548Z,9.10
2019-02-24T04:33:40.441Z,8.80
2019-02-24T04:36:09.273Z,9.30
2019-02-24T04:38:38.066Z,9.40
2019-02-24T04:41:06.867Z,9.10
2019-02-24T04:43:35.668Z,8.80
2019-02-24T04:46:04.508Z,8.80
2019-02-24T04:48:33.340Z,8.60
2019-02-24T04:51:02.207Z,8.50
2019-02-24T04:53:31.172Z,8.60
2019-02-24T04:56:00.250Z,8.50
2019-02-24T04:58:29.294Z,8.70
2019-02-24T05:00:58.100Z,8.60
2019-02-24T05:03:26.931Z,8.90
2019-02-24T05:05:55.820Z,8.80
2019-02-24T05:08:24.644Z,8.60
2019-02-24T05:10:53.448Z,8.60
2019-02-24T05:13:22.342Z,8.60
2019-02-24T05:15:51.274Z,8.30
2019-02-24T05:18:20.181Z,8.50
2019-02-24T05:20:49.258Z,8.30
2019-02-24T05:23:18.039Z,8.30
2019-02-24T05:25:46.945Z,8.30
2019-02-24T05:28:15.837Z,8.20
2019-02-24T05:30:44.748Z,8.30
2019-02-24T05:33:13.688Z,8.20
2019-02-24T05:35:42.585Z,8.20
2019-02-24T05:38:11.578Z,8.40
2019-02-24T05:40:40.537Z,8.20
2019-02-24T05:43:09.443Z,8.20
2019-02-24T05:45:38.315Z,8.30
2019-02-24T05:48:07.240Z,8.30
2019-02-24T05:50:36.237Z,8.20
2019-02-24T05:53:05.224Z,8.30
2019-02-24T05:55:34.122Z,8.20
2019-02-24T05:58:03.115Z,8.20
2019-02-24T06:00:32.227Z,8.20
2019-02-24T06:03:01.087Z,8.20
2019-02-24T06:05:29.974Z,8.10
2019-02-24T06:07:58.784Z,8.50
2019-02-24T06:10:27.570Z,8.40
2019-02-24T06:12:56.337Z,8.30
2019-02-24T06:15:25.186Z,8.50
2019-02-24T06:17:54.323Z,8.20
2019-02-24T06:20:23.140Z,8.10
2019-02-24T06:22:52.032Z,8.10
2019-02-24T06:25:21.070Z,8.10
2019-02-24T06:27:50.088Z,8.10
2019-02-24T06:30:19.092Z,8.10
2019-02-24T06:32:48.077Z,8.20
2019-02-24T06:35:17.036Z,8.10
2019-02-24T06:37:45.940Z,8.10
2019-02-24T06:40:14.813Z,8.10
2019-02-24T06:42:43.776Z,8.40
2019-02-24T06:45:12.692Z,8.40
2019-02-24T06:47:41.593Z,9.20
2019-02-24T06:50:10.892Z,9.20
2019-02-24T06:52:39.851Z,9.30
2019-02-24T06:55:09.028Z,9.20
2019-02-24T06:57:38.029Z,8.30
2019-02-24T07:00:13.859Z,8.50
2019-02-24T07:02:38.552Z,8.30
2019-02-24T07:05:07.877Z,8.20
2019-02-24T07:07:36.776Z,8.30
2019-02-24T07:10:06.392Z,8.20
2019-02-24T07:12:35.440Z,8.20
2019-02-24T07:15:04.664Z,8.20
2019-02-24T07:17:33.436Z,8.30
2019-02-24T07:20:02.620Z,8.30
2019-02-24T07:22:31.436Z,8.30
2019-02-24T07:25:00.232Z,8.30
2019-02-24T07:27:29.172Z,8.30
2019-02-24T07:29:58.181Z,8.40
2019-02-24T07:32:27.218Z,8.40
2019-02-24T07:34:56.013Z,8.60
2019-02-24T07:37:24.823Z,8.40
2019-02-24T07:39:53.692Z,8.40
2019-02-24T07:42:22.666Z,8.70
2019-02-24T07:44:51.473Z,8.70
2019-02-24T07:47:20.341Z,8.60
2019-02-24T07:49:49.165Z,8.60
2019-02-24T07:52:18.352Z,8.70
2019-02-24T07:54:47.265Z,8.70
2019-02-24T07:57:16.153Z,8.70
2019-02-24T07:59:45.084Z,8.70
2019-02-24T08:02:13.963Z,8.20
2019-02-24T08:04:42.952Z,8.70
2019-02-24T08:07:11.752Z,8.70
2019-02-24T08:09:41.007Z,8.80
2019-02-24T08:12:10.057Z,8.40
2019-02-24T08:14:39.255Z,8.80
2019-02-24T08:17:08.140Z,8.80
2019-02-24T08:19:37.224Z,8.90
2019-02-24T08:22:06.104Z,8.80
2019-02-24T08:24:35.169Z,8.40
2019-02-24T08:27:04.064Z,8.50
2019-02-24T08:29:32.876Z,8.30
2019-02-24T08:32:01.892Z,7.90
2019-02-24T08:34:30.960Z,9.10
2019-02-24T08:36:59.772Z,7.00
2019-02-24T08:39:28.719Z,8.00
2019-02-24T08:41:57.640Z,7.50
2019-02-24T08:44:26.528Z,7.60
2019-02-24T08:46:55.397Z,7.60
2019-02-24T08:49:24.199Z,6.20
2019-02-24T08:51:53.097Z,5.70
2019-02-24T08:54:21.928Z,6.40
2019-02-24T08:56:50.984Z,4.30
2019-02-24T08:59:19.836Z,5.10
2019-02-24T09:01:48.954Z,4.90
2019-02-24T09:04:17.803Z,4.80
2019-02-24T09:06:46.613Z,4.50
2019-02-24T09:09:15.764Z,4.40
2019-02-24T09:11:44.674Z,1.90
2019-02-24T09:14:13.544Z,2.10
2019-02-24T09:16:42.384Z,3.00
2019-02-24T09:19:11.508Z,4.90
2019-02-24T09:21:40.670Z,6.10
2019-02-24T09:24:09.576Z,2.90
2019-02-24T09:26:38.504Z,2.70
2019-02-24T09:29:07.376Z,1.70
2019-02-24T09:31:36.542Z,1.00
2019-02-24T09:34:05.408Z,1.00
2019-02-24T09:36:34.537Z,1.00
2019-02-24T09:39:04.127Z,1.00
2019-02-24T09:41:32.918Z,1.00
2019-02-24T09:44:01.831Z,1.00
2019-02-24T09:46:30.655Z,1.00
2019-02-24T09:48:59.554Z,1.00
2019-02-24T09:51:28.802Z,1.00
2019-02-24T09:53:57.601Z,1.00
2019-02-24T09:56:26.428Z,1.00
2019-02-24T09:58:55.356Z,1.00
2019-02-24T10:01:24.360Z,1.00
2019-02-24T10:03:53.228Z,1.00
2019-02-24T10:06:22.128Z,1.00
2019-02-24T10:08:51.096Z,1.00
2019-02-24T10:11:19.892Z,1.00
2019-02-24T10:13:48.773Z,1.00
2019-02-24T10:16:17.735Z,1.00
2019-02-24T10:18:46.544Z,1.00
2019-02-24T10:21:15.416Z,1.00
2019-02-24T10:23:44.436Z,1.00
2019-02-24T10:26:13.371Z,1.00
2019-02-24T10:28:42.265Z,1.00
2019-02-24T10:31:19.642Z,1.00
2019-02-24T10:33:41.921Z,1.00
2019-02-24T10:36:10.872Z,1.00
2019-02-24T10:38:39.768Z,1.00
2019-02-24T10:41:08.638Z,1.00
2019-02-24T10:43:37.925Z,1.00
2019-02-24T10:46:07.130Z,1.00
2019-02-24T10:48:35.923Z,1.00
2019-02-24T10:51:04.934Z,1.00
2019-02-24T10:53:34.127Z,1.00
2019-02-24T10:56:03.593Z,1.00
2019-02-24T10:58:34.901Z,1.00
2019-02-24T11:01:03.161Z,1.00
2019-02-24T11:03:32.262Z,1.00
2019-02-24T11:06:01.320Z,1.00
2019-02-24T11:08:30.116Z,1.00
2019-02-24T11:10:59.015Z,1.00
2019-02-24T11:13:27.856Z,1.00
2019-02-24T11:15:56.947Z,1.00
2019-02-24T11:18:25.784Z,1.00
2019-02-24T11:20:54.571Z,1.00
2019-02-24T11:23:23.536Z,1.00
2019-02-24T11:25:52.366Z,1.00
2019-02-24T11:28:21.510Z,1.00
2019-02-24T11:30:50.440Z,1.00
2019-02-24T11:33:19.355Z,1.00
2019-02-24T11:35:48.259Z,1.00
2019-02-24T11:38:17.168Z,1.00
2019-02-24T11:40:46.052Z,1.00
2019-02-24T11:43:15.491Z,1.00
2019-02-24T11:45:44.356Z,1.00
2019-02-24T11:48:13.274Z,1.00
2019-02-24T11:50:42.132Z,1.00
2019-02-24T11:53:10.932Z,1.00
2019-02-24T11:55:39.805Z,1.00
2019-02-24T11:58:09.044Z,1.00
2019-02-24T12:00:37.944Z,1.00
2019-02-24T12:03:06.943Z,1.00
2019-02-24T12:05:35.814Z,1.00
2019-02-24T12:08:04.820Z,1.00
2019-02-24T12:10:33.607Z,1.00
2019-02-24T12:13:02.511Z,1.00
2019-02-24T12:15:31.480Z,1.00
2019-02-24T12:18:00.351Z,1.00
2019-02-24T12:20:29.421Z,1.00
2019-02-24T12:22:58.460Z,1.00
2019-02-24T12:25:27.451Z,1.00
2019-02-24T12:27:56.269Z,1.00
2019-02-24T12:30:25.300Z,1.00
2019-02-24T12:32:54.086Z,1.00
2019-02-24T12:35:23.378Z,1.00
2019-02-24T12:37:52.279Z,1.00
2019-02-24T12:40:21.300Z,1.00
2019-02-24T12:42:50.184Z,1.00
2019-02-24T12:45:19.077Z,1.00
2019-02-24T12:47:48.017Z,1.00
2019-02-24T12:50:17.467Z,1.00
2019-02-24T12:52:46.392Z,1.00
2019-02-24T12:55:15.276Z,1.00
2019-02-24T12:57:44.172Z,1.00
2019-02-24T13:00:16.369Z,1.00
2019-02-24T13:02:45.282Z,1.00
2019-02-24T13:05:14.628Z,1.00
2019-02-24T13:07:43.536Z,1.00
2019-02-24T13:10:13.933Z,1.00
2019-02-24T13:12:43.124Z,1.00
2019-02-24T13:15:12.336Z,1.00
2019-02-24T13:17:41.305Z,1.00
2019-02-24T13:20:10.709Z,1.00
2019-02-24T13:22:39.698Z,1.00
2019-02-24T13:25:09.957Z,1.00
2019-02-24T13:27:39.030Z,1.00
2019-02-24T13:30:08.440Z,1.00
2019-02-24T13:32:37.325Z,1.00
2019-02-24T13:35:06.444Z,1.00
2019-02-24T13:37:35.336Z,1.00
2019-02-24T13:40:04.768Z,1.00
2019-02-24T13:42:33.568Z,1.00
2019-02-24T13:45:02.472Z,1.00
2019-02-24T13:47:31.256Z,1.00
2019-02-24T13:50:00.315Z,1.00
2019-02-24T13:52:29.499Z,1.00
2019-02-24T13:54:58.421Z,1.00
2019-02-24T13:57:27.448Z,1.00
2019-02-24T13:59:56.289Z,1.00
2019-02-24T14:02:25.103Z,1.00
2019-02-24T14:04:53.977Z,1.00
2019-02-24T14:07:22.972Z,1.00
2019-02-24T14:09:51.784Z,1.00
2019-02-24T14:12:20.748Z,1.00
2019-02-24T14:14:49.561Z,1.00
2019-02-24T14:17:18.473Z,1.00
2019-02-24T14:19:47.288Z,1.00
2019-02-24T14:22:16.316Z,1.00
2019-02-24T14:24:45.228Z,1.00
2019-02-24T14:27:14.675Z,1.00
2019-02-24T14:29:43.760Z,1.00
2019-02-24T14:32:12.815Z,1.00
2019-02-24T14:34:42.117Z,1.00
2019-02-24T14:37:10.992Z,1.00
2019-02-24T14:39:39.948Z,1.00
2019-02-24T14:42:09.150Z,1.00
2019-02-24T14:44:40.203Z,1.00
2019-02-24T14:47:11.420Z,1.00
2019-02-24T14:49:40.692Z,1.00
2019-02-24T14:52:09.616Z,1.00
2019-02-24T14:54:38.797Z,1.00
2019-02-24T14:57:07.790Z,1.00
2019-02-24T14:59:36.663Z,1.00
2019-02-24T15:02:05.767Z,1.00
2019-02-24T15:04:34.613Z,1.00
2019-02-24T15:07:03.422Z,1.00
2019-02-24T15:09:32.250Z,1.00
2019-02-24T15:12:01.152Z,1.00
2019-02-24T15:14:30.056Z,1.00
2019-02-24T15:16:58.908Z,1.00
2019-02-24T15:19:27.900Z,1.00
2019-02-24T15:21:56.888Z,1.00
2019-02-24T15:24:25.713Z,1.00
2019-02-24T15:26:54.530Z,1.00
2019-02-24T15:29:23.432Z,1.00
2019-02-24T15:31:52.441Z,1.00
2019-02-24T15:34:21.432Z,1.00
2019-02-24T15:36:50.312Z,1.00
2019-02-24T15:39:19.275Z,1.00
2019-02-24T15:41:48.556Z,1.00
2019-02-24T15:44:17.456Z,1.00
2019-02-24T15:46:46.457Z,1.00
2019-02-24T15:51:57.459Z,1.00
2019-02-24T15:54:26.671Z,1.00
2019-02-24T15:56:55.757Z,1.00
2019-02-24T15:59:24.817Z,1.00
2019-02-24T16:01:53.975Z,1.00
2019-02-24T16:04:23.217Z,1.00
2019-02-24T16:06:52.277Z,1.00
2019-02-24T16:09:21.517Z,1.00
2019-02-24T16:11:54.941Z,1.00
2019-02-24T16:17:57.585Z,1.00
2019-02-24T16:20:26.724Z,1.00
2019-02-24T16:22:55.661Z,1.00
2019-02-24T16:25:24.680Z,1.00
2019-02-24T16:27:56.005Z,1.00
2019-02-24T16:30:25.037Z,1.00
2019-02-24T16:32:53.921Z,1.00
2019-02-24T16:35:22.908Z,1.00
2019-02-24T16:37:51.905Z,1.00
2019-02-24T16:40:20.975Z,1.00
2019-02-24T16:42:50.137Z,1.00
2019-02-24T16:45:19.179Z,1.00
2019-02-24T16:47:48.075Z,1.00
2019-02-24T16:50:17.233Z,1.00
2019-02-24T16:52:46.238Z,1.00
2019-02-24T16:55:15.331Z,1.00
2019-02-24T16:57:44.384Z,1.00
2019-02-24T17:00:15.878Z,1.00
2019-02-24T17:02:44.933Z,1.00
2019-02-24T17:05:14.201Z,1.00
2019-02-24T17:07:43.737Z,1.00
2019-02-24T17:10:14.065Z,1.00
2019-02-24T17:12:43.005Z,1.00
2019-02-24T17:15:12.117Z,1.00
2019-02-24T17:17:41.124Z,1.00
2019-02-24T17:20:12.080Z,1.00
2019-02-24T17:22:41.061Z,1.00
2019-02-24T17:25:10.421Z,1.00
2019-02-24T17:27:39.425Z,1.00
2019-02-24T17:30:09.367Z,1.00
2019-02-24T17:32:38.437Z,1.00
2019-02-24T17:35:07.585Z,1.00
2019-02-24T17:37:37.429Z,1.00
2019-02-24T17:40:07.648Z,1.00
2019-02-24T17:42:36.557Z,1.00
2019-02-24T17:45:06.537Z,1.00
2019-02-24T17:47:35.581Z,1.00
2019-02-24T17:50:05.002Z,1.00
2019-02-24T17:52:33.941Z,1.00
2019-02-24T17:55:02.830Z,1.00
2019-02-24T17:57:31.792Z,1.00
2019-02-24T18:00:00.860Z,1.00
2019-02-24T18:02:37.026Z,1.00
2019-02-24T18:05:07.614Z,1.00
2019-02-24T18:07:36.899Z,1.00
2019-02-24T18:10:06.302Z,1.00
2019-02-24T18:12:35.583Z,1.00
2019-02-24T18:15:05.579Z,1.00
2019-02-24T18:17:34.837Z,1.00
2019-02-24T18:20:04.407Z,1.00
2019-02-24T18:22:33.604Z,1.00
2019-02-24T18:25:03.477Z,1.00
2019-02-24T18:27:33.269Z,1.00
2019-02-24T18:30:02.168Z,1.00
2019-02-24T18:37:42.502Z,1.00
2019-02-24T18:40:12.500Z,1.00
2019-02-24T18:42:41.447Z,1.00
2019-02-24T18:45:10.799Z,1.00
2019-02-24T18:47:39.856Z,1.00
2019-02-24T18:50:09.805Z,1.00
2019-02-24T18:52:38.667Z,1.00
2019-02-24T18:55:08.084Z,1.00
2019-02-24T18:57:37.144Z,1.00
2019-02-24T19:00:07.205Z,1.00
2019-02-24T19:02:36.211Z,1.00
2019-02-24T19:05:05.409Z,1.00
2019-02-24T19:07:35.665Z,1.00
2019-02-24T19:10:05.749Z,1.00
2019-02-24T19:12:34.840Z,1.00
2019-02-24T19:15:04.612Z,1.00
2019-02-24T19:17:33.745Z,1.00
2019-02-24T19:20:02.753Z,1.00
2019-02-24T19:22:31.818Z,1.00
2019-02-24T19:25:00.608Z,1.00
2019-02-24T19:27:29.524Z,1.00
2019-02-24T19:29:58.711Z,1.00
2019-02-24T19:32:27.665Z,1.00
2019-02-24T19:34:56.640Z,1.00
2019-02-24T19:37:30.475Z,1.00
2019-02-24T19:40:06.455Z,1.00
2019-02-24T19:42:47.665Z,1.00
2019-02-24T19:45:18.507Z,1.00
2019-02-24T19:48:07.906Z,1.00
2019-02-24T19:50:38.291Z,1.00
2019-02-24T19:53:07.556Z,1.00
2019-02-24T19:55:36.594Z,1.00
2019-02-24T19:58:05.900Z,1.00
2019-02-24T20:00:35.177Z,1.00
2019-02-24T20:03:04.422Z,1.00
2019-02-24T20:05:35.596Z,1.00
2019-02-24T20:08:04.742Z,1.00
2019-02-24T20:10:33.759Z,1.00
2019-02-24T20:13:02.929Z,1.00
2019-02-24T20:15:35.813Z,1.00
2019-02-24T20:18:04.799Z,1.00
2019-02-24T20:20:33.848Z,1.00
2019-02-24T20:23:02.821Z,1.00
2019-02-24T20:25:31.885Z,1.00
2019-02-24T20:28:10.315Z,1.00
2019-02-24T20:30:39.321Z,1.00
2019-02-24T20:33:08.611Z,1.00
2019-02-24T20:35:37.630Z,1.00
2019-02-24T20:38:06.618Z,1.00
2019-02-24T20:40:35.676Z,1.00
2019-02-24T20:43:04.885Z,1.00
2019-02-24T20:45:33.954Z,1.00
2019-02-24T20:48:03.047Z,1.00
2019-02-24T20:50:32.479Z,1.00
2019-02-24T20:53:01.613Z,1.00
2019-02-24T20:55:30.723Z,1.00
2019-02-24T20:57:59.649Z,1.00
2019-02-24T21:00:31.386Z,1.00
2019-02-24T21:03:01.463Z,1.00
2019-02-24T21:05:31.293Z,1.00
2019-02-24T21:08:00.555Z,1.00
2019-02-24T21:10:29.518Z,1.00
2019-02-24T21:12:58.430Z,1.00
2019-02-24T21:15:27.433Z,1.00
2019-02-24T21:17:56.377Z,1.00
2019-02-24T21:20:26.776Z,1.00
2019-02-24T21:22:55.837Z,1.00
2019-02-24T21:25:24.851Z,1.00
2019-02-24T21:27:53.893Z,1.00
2019-02-24T21:30:23.229Z,1.00
2019-02-24T21:32:52.281Z,1.00
2019-02-24T21:35:21.397Z,1.00
2019-02-24T21:37:50.335Z,1.00
2019-02-24T21:40:19.369Z,1.00
2019-02-24T21:42:48.475Z,1.00
2019-02-24T21:45:18.707Z,1.00
2019-02-24T21:47:47.762Z,1.00
2019-02-24T21:50:16.941Z,1.00
2019-02-24T21:52:46.261Z,1.00
2019-02-24T21:55:15.629Z,1.00
2019-02-24T21:57:45.084Z,1.00
2019-02-24T22:00:16.508Z,1.00
2019-02-24T22:02:45.487Z,1.00
2019-02-24T22:05:14.596Z,1.00
2019-02-24T22:07:43.601Z,1.00
2019-02-24T22:10:12.953Z,1.10
2019-02-24T22:12:41.962Z,1.00
2019-02-24T22:15:13.253Z,1.00
2019-02-24T22:17:42.282Z,1.00
2019-02-24T22:20:11.430Z,1.00
2019-02-24T22:22:40.357Z,1.20
2019-02-24T22:25:10.013Z,1.40
2019-02-24T22:27:39.027Z,1.50
2019-02-24T22:30:09.955Z,1.70
2019-02-24T22:32:39.056Z,1.40
2019-02-24T22:35:08.393Z,1.40
2019-02-24T22:37:37.958Z,1.50
2019-02-24T22:40:08.971Z,1.20
2019-02-24T22:42:37.917Z,1.00
2019-02-24T22:45:11.138Z,1.00
2019-02-24T22:47:40.140Z,1.00
2019-02-24T22:50:09.472Z,1.00
2019-02-24T22:52:38.493Z,1.00
2019-02-24T22:55:07.525Z,1.00
2019-02-24T22:57:36.509Z,1.00
2019-02-24T23:00:12.045Z,1.00
2019-02-24T23:02:41.032Z,1.00
2019-02-24T23:05:11.549Z,1.00
2019-02-24T23:07:40.475Z,1.00
2019-02-24T23:10:10.093Z,1.00
2019-02-24T23:12:39.030Z,1.00
2019-02-24T23:15:08.077Z,1.00
2019-02-24T23:17:37.119Z,1.00
2019-02-24T23:20:06.246Z,1.00
2019-02-24T23:22:35.251Z,1.00
2019-02-24T23:25:04.448Z,1.00
2019-02-24T23:27:33.469Z,1.00
2019-02-24T23:30:02.462Z,1.00
2019-02-24T23:32:31.397Z,1.00
2019-02-24T23:35:00.381Z,1.00
2019-02-24T23:37:29.477Z,1.00
2019-02-24T23:39:58.521Z,1.00
2019-02-24T23:42:27.508Z,1.00
2019-02-24T23:44:56.523Z,1.00
2019-02-24T23:47:25.525Z,1.00
2019-02-24T23:49:54.541Z,1.00
2019-02-24T23:52:23.576Z,1.00
2019-02-24T23:54:52.657Z,1.00
2019-02-24T23:57:21.769Z,1.00
2019-02-24T23:59:50.716Z,1.00
